sensor_id;sensor_type;location;lat;lon;timestamp;pressure;altitude;pressure_sealevel;temperature;humidity
20612;BME280;10465;42.686;23.364;2022-12-18T00:00:57;95726.44;;;9.27;84.88
20612;BME280;10465;42.686;23.364;2022-12-18T00:03:23;95732.06;;;9.20;84.96
20612;BME280;10465;42.686;23.364;2022-12-18T00:05:50;95714.66;;;9.14;84.52
20612;BME280;10465;42.686;23.364;2022-12-18T00:08:15;95732.66;;;9.12;84.83
20612;BME280;10465;42.686;23.364;2022-12-18T00:10:41;95735.25;;;9.17;84.51
20612;BME280;10465;42.686;23.364;2022-12-18T00:13:07;95729.22;;;9.06;84.75
20612;BME280;10465;42.686;23.364;2022-12-18T00:15:36;95736.56;;;9.14;84.71
20612;BME280;10465;42.686;23.364;2022-12-18T00:18:01;95738.97;;;9.11;84.43
20612;BME280;10465;42.686;23.364;2022-12-18T00:20:27;95706.56;;;8.95;83.94
20612;BME280;10465;42.686;23.364;2022-12-18T00:22:53;95737.19;;;9.01;83.81
20612;BME280;10465;42.686;23.364;2022-12-18T00:25:18;95747.78;;;8.96;84.36
20612;BME280;10465;42.686;23.364;2022-12-18T00:27:44;95745.41;;;9.00;84.31
20612;BME280;10465;42.686;23.364;2022-12-18T00:30:10;95747.28;;;8.89;85.07
20612;BME280;10465;42.686;23.364;2022-12-18T00:32:35;95727.53;;;8.81;84.42
20612;BME280;10465;42.686;23.364;2022-12-18T00:35:01;95761.28;;;8.89;83.68
20612;BME280;10465;42.686;23.364;2022-12-18T00:37:26;95753.63;;;8.83;83.62
20612;BME280;10465;42.686;23.364;2022-12-18T00:39:52;95766.59;;;8.84;83.59
20612;BME280;10465;42.686;23.364;2022-12-18T00:42:17;95769.47;;;8.83;83.53
20612;BME280;10465;42.686;23.364;2022-12-18T00:45:02;95745.28;;;8.65;84.06
20612;BME280;10465;42.686;23.364;2022-12-18T00:47:28;95775.06;;;8.76;83.84
20612;BME280;10465;42.686;23.364;2022-12-18T00:49:53;95765.03;;;8.78;83.77
20612;BME280;10465;42.686;23.364;2022-12-18T00:52:18;95765.31;;;8.72;83.33
20612;BME280;10465;42.686;23.364;2022-12-18T00:54:44;95780.38;;;8.71;83.28
20612;BME280;10465;42.686;23.364;2022-12-18T00:57:09;95778.28;;;8.58;83.93
20612;BME280;10465;42.686;23.364;2022-12-18T00:59:35;95787.81;;;8.54;83.53
20612;BME280;10465;42.686;23.364;2022-12-18T01:02:00;95793.38;;;8.52;83.84
20612;BME280;10465;42.686;23.364;2022-12-18T01:04:25;95788.38;;;8.51;83.81
20612;BME280;10465;42.686;23.364;2022-12-18T01:06:51;95783.88;;;8.41;83.74
20612;BME280;10465;42.686;23.364;2022-12-18T01:09:16;95792.59;;;8.52;83.44
20612;BME280;10465;42.686;23.364;2022-12-18T01:11:42;95791.31;;;8.39;83.47
20612;BME280;10465;42.686;23.364;2022-12-18T01:14:07;95763.84;;;8.25;83.59
20612;BME280;10465;42.686;23.364;2022-12-18T01:16:33;95786.53;;;8.31;83.03
20612;BME280;10465;42.686;23.364;2022-12-18T01:18:58;95799.97;;;8.29;83.04
20612;BME280;10465;42.686;23.364;2022-12-18T01:21:24;95806.06;;;8.25;83.72
20612;BME280;10465;42.686;23.364;2022-12-18T01:23:54;95797.34;;;8.29;83.17
20612;BME280;10465;42.686;23.364;2022-12-18T01:26:20;95790.22;;;8.30;83.27
20612;BME280;10465;42.686;23.364;2022-12-18T01:28:46;95790.75;;;8.22;83.39
20612;BME280;10465;42.686;23.364;2022-12-18T01:31:26;95810.28;;;8.31;82.74
20612;BME280;10465;42.686;23.364;2022-12-18T01:33:53;95803.69;;;8.23;82.88
20612;BME280;10465;42.686;23.364;2022-12-18T01:36:21;95809.22;;;8.32;82.37
20612;BME280;10465;42.686;23.364;2022-12-18T01:38:47;95816.09;;;8.23;82.79
20612;BME280;10465;42.686;23.364;2022-12-18T01:41:15;95818.19;;;8.21;82.89
20612;BME280;10465;42.686;23.364;2022-12-18T01:46:11;95777.88;;;7.84;83.09
20612;BME280;10465;42.686;23.364;2022-12-18T01:48:37;95815.84;;;8.19;83.00
20612;BME280;10465;42.686;23.364;2022-12-18T01:51:04;95826.91;;;8.21;82.75
20612;BME280;10465;42.686;23.364;2022-12-18T01:53:31;95826.66;;;8.23;82.28
20612;BME280;10465;42.686;23.364;2022-12-18T01:55:57;95822.94;;;8.24;82.20
20612;BME280;10465;42.686;23.364;2022-12-18T01:58:41;95823.72;;;8.14;82.34
20612;BME280;10465;42.686;23.364;2022-12-18T02:01:09;95806.09;;;7.99;82.35
20612;BME280;10465;42.686;23.364;2022-12-18T02:03:35;95817.97;;;8.07;82.21
20612;BME280;10465;42.686;23.364;2022-12-18T02:06:16;95821.13;;;8.04;81.71
20612;BME280;10465;42.686;23.364;2022-12-18T02:08:51;95836.41;;;8.12;81.60
20612;BME280;10465;42.686;23.364;2022-12-18T02:11:32;95833.00;;;8.06;81.28
20612;BME280;10465;42.686;23.364;2022-12-18T02:16:45;95822.44;;;7.86;81.58
20612;BME280;10465;42.686;23.364;2022-12-18T02:24:50;95846.97;;;7.86;81.77
20612;BME280;10465;42.686;23.364;2022-12-18T02:27:18;95849.59;;;7.76;82.15
20612;BME280;10465;42.686;23.364;2022-12-18T02:29:49;95852.75;;;7.83;81.79
20612;BME280;10465;42.686;23.364;2022-12-18T02:32:20;95863.31;;;7.78;81.78
20612;BME280;10465;42.686;23.364;2022-12-18T02:34:48;95849.31;;;7.67;82.04
20612;BME280;10465;42.686;23.364;2022-12-18T02:37:17;95842.72;;;7.65;81.67
20612;BME280;10465;42.686;23.364;2022-12-18T02:39:46;95852.47;;;7.59;82.72
20612;BME280;10465;42.686;23.364;2022-12-18T02:42:12;95859.84;;;7.62;82.57
20612;BME280;10465;42.686;23.364;2022-12-18T02:44:46;95850.31;;;7.41;82.89
20612;BME280;10465;42.686;23.364;2022-12-18T02:47:13;95872.16;;;7.36;83.24
20612;BME280;10465;42.686;23.364;2022-12-18T02:57:59;95873.78;;;7.37;83.89
20612;BME280;10465;42.686;23.364;2022-12-18T03:00:36;95868.50;;;7.37;83.89
20612;BME280;10465;42.686;23.364;2022-12-18T03:03:14;95864.03;;;7.43;83.55
20612;BME280;10465;42.686;23.364;2022-12-18T03:05:50;95870.84;;;7.34;83.29
20612;BME280;10465;42.686;23.364;2022-12-18T03:08:27;95832.03;;;7.04;83.58
20612;BME280;10465;42.686;23.364;2022-12-18T03:11:00;95887.47;;;7.39;83.21
20612;BME280;10465;42.686;23.364;2022-12-18T03:13:37;95866.31;;;7.19;82.99
20612;BME280;10465;42.686;23.364;2022-12-18T03:16:06;95894.56;;;7.39;83.11
20612;BME280;10465;42.686;23.364;2022-12-18T03:21:06;95896.97;;;7.51;82.63
20612;BME280;10465;42.686;23.364;2022-12-18T03:23:38;95901.75;;;7.54;82.20
20612;BME280;10465;42.686;23.364;2022-12-18T03:26:10;95877.44;;;7.36;82.36
20612;BME280;10465;42.686;23.364;2022-12-18T03:28:41;95885.09;;;7.43;82.18
20612;BME280;10465;42.686;23.364;2022-12-18T03:31:09;95899.06;;;7.49;81.72
20612;BME280;10465;42.686;23.364;2022-12-18T03:33:47;95909.38;;;7.50;81.72
20612;BME280;10465;42.686;23.364;2022-12-18T03:36:16;95889.31;;;7.44;81.57
20612;BME280;10465;42.686;23.364;2022-12-18T03:38:41;95911.16;;;7.44;81.29
20612;BME280;10465;42.686;23.364;2022-12-18T03:44:02;95892.44;;;7.36;81.07
20612;BME280;10465;42.686;23.364;2022-12-18T03:46:43;95906.19;;;7.43;81.04
20612;BME280;10465;42.686;23.364;2022-12-18T03:49:44;95929.63;;;7.44;80.54
20612;BME280;10465;42.686;23.364;2022-12-18T03:52:23;95928.59;;;7.46;79.43
20612;BME280;10465;42.686;23.364;2022-12-18T03:54:52;95919.56;;;7.26;79.26
20612;BME280;10465;42.686;23.364;2022-12-18T03:57:21;95936.72;;;7.39;79.08
20612;BME280;10465;42.686;23.364;2022-12-18T03:59:51;95941.44;;;7.37;78.89
20612;BME280;10465;42.686;23.364;2022-12-18T04:02:20;95951.19;;;7.36;78.92
20612;BME280;10465;42.686;23.364;2022-12-18T04:04:48;95932.72;;;7.31;78.60
20612;BME280;10465;42.686;23.364;2022-12-18T04:07:16;95961.50;;;7.43;78.26
20612;BME280;10465;42.686;23.364;2022-12-18T04:09:43;95921.91;;;7.28;78.24
20612;BME280;10465;42.686;23.364;2022-12-18T04:12:09;95943.84;;;7.49;78.03
20612;BME280;10465;42.686;23.364;2022-12-18T04:14:35;95933.31;;;7.43;78.52
20612;BME280;10465;42.686;23.364;2022-12-18T04:17:01;95943.56;;;7.40;77.99
20612;BME280;10465;42.686;23.364;2022-12-18T04:19:27;95967.31;;;7.50;78.43
20612;BME280;10465;42.686;23.364;2022-12-18T04:21:53;95971.53;;;7.51;78.23
20612;BME280;10465;42.686;23.364;2022-12-18T04:24:18;95960.69;;;7.37;78.00
20612;BME280;10465;42.686;23.364;2022-12-18T04:26:47;95956.44;;;7.31;77.23
20612;BME280;10465;42.686;23.364;2022-12-18T04:29:12;95978.66;;;7.46;77.33
20612;BME280;10465;42.686;23.364;2022-12-18T04:31:38;95984.69;;;7.46;76.60
20612;BME280;10465;42.686;23.364;2022-12-18T04:34:03;95972.31;;;7.41;76.67
20612;BME280;10465;42.686;23.364;2022-12-18T04:36:29;95979.66;;;7.39;76.89
20612;BME280;10465;42.686;23.364;2022-12-18T04:38:55;95992.31;;;7.37;76.44
20612;BME280;10465;42.686;23.364;2022-12-18T04:41:20;95970.59;;;7.20;76.25
20612;BME280;10465;42.686;23.364;2022-12-18T04:43:46;95990.88;;;7.19;76.43
20612;BME280;10465;42.686;23.364;2022-12-18T04:46:12;95996.38;;;7.13;76.41
20612;BME280;10465;42.686;23.364;2022-12-18T04:48:37;95970.69;;;6.88;76.47
20612;BME280;10465;42.686;23.364;2022-12-18T04:51:03;95979.38;;;6.88;75.92
20612;BME280;10465;42.686;23.364;2022-12-18T04:53:32;95983.91;;;6.98;75.82
20612;BME280;10465;42.686;23.364;2022-12-18T04:56:09;96019.31;;;7.17;75.50
20612;BME280;10465;42.686;23.364;2022-12-18T04:58:36;96016.44;;;7.19;75.49
20612;BME280;10465;42.686;23.364;2022-12-18T05:01:02;96025.38;;;7.18;75.12
20612;BME280;10465;42.686;23.364;2022-12-18T05:03:28;96018.84;;;7.26;74.58
20612;BME280;10465;42.686;23.364;2022-12-18T05:05:53;96025.41;;;7.23;74.45
20612;BME280;10465;42.686;23.364;2022-12-18T05:08:18;95996.31;;;7.03;73.91
20612;BME280;10465;42.686;23.364;2022-12-18T05:10:44;96017.09;;;6.99;73.95
20612;BME280;10465;42.686;23.364;2022-12-18T05:13:10;96030.56;;;7.03;74.41
20612;BME280;10465;42.686;23.364;2022-12-18T05:15:35;96020.69;;;6.88;74.02
20612;BME280;10465;42.686;23.364;2022-12-18T05:18:02;96044.47;;;6.98;74.27
20612;BME280;10465;42.686;23.364;2022-12-18T05:20:28;96051.28;;;6.94;74.20
20612;BME280;10465;42.686;23.364;2022-12-18T05:22:54;96046.59;;;7.01;74.27
20612;BME280;10465;42.686;23.364;2022-12-18T05:25:20;96051.31;;;6.99;74.19
20612;BME280;10465;42.686;23.364;2022-12-18T05:27:46;96046.84;;;7.00;74.14
20612;BME280;10465;42.686;23.364;2022-12-18T05:30:12;96057.38;;;7.00;74.76
20612;BME280;10465;42.686;23.364;2022-12-18T05:32:38;96039.09;;;6.83;75.03
20612;BME280;10465;42.686;23.364;2022-12-18T05:35:06;96063.25;;;6.75;75.29
20612;BME280;10465;42.686;23.364;2022-12-18T05:37:32;96058.06;;;6.85;75.45
20612;BME280;10465;42.686;23.364;2022-12-18T05:39:57;96068.63;;;6.90;75.26
20612;BME280;10465;42.686;23.364;2022-12-18T05:42:22;96042.75;;;6.77;74.97
20612;BME280;10465;42.686;23.364;2022-12-18T05:44:48;96067.56;;;6.91;74.22
20612;BME280;10465;42.686;23.364;2022-12-18T05:47:13;96076.06;;;6.98;74.17
20612;BME280;10465;42.686;23.364;2022-12-18T05:49:39;96062.00;;;6.82;74.02
20612;BME280;10465;42.686;23.364;2022-12-18T05:52:04;96083.09;;;6.87;72.92
20612;BME280;10465;42.686;23.364;2022-12-18T05:54:30;96081.50;;;6.86;72.69
20612;BME280;10465;42.686;23.364;2022-12-18T05:56:56;96086.72;;;6.81;73.18
20612;BME280;10465;42.686;23.364;2022-12-18T05:59:22;96082.44;;;6.75;73.18
20612;BME280;10465;42.686;23.364;2022-12-18T06:01:47;96061.47;;;6.53;72.77
20612;BME280;10465;42.686;23.364;2022-12-18T06:04:13;96078.72;;;6.71;72.91
20612;BME280;10465;42.686;23.364;2022-12-18T06:06:38;96097.16;;;6.71;72.92
20612;BME280;10465;42.686;23.364;2022-12-18T06:09:04;96083.22;;;6.71;72.73
20612;BME280;10465;42.686;23.364;2022-12-18T06:11:35;96098.03;;;6.82;72.59
20612;BME280;10465;42.686;23.364;2022-12-18T06:14:02;96103.59;;;6.85;72.29
20612;BME280;10465;42.686;23.364;2022-12-18T06:16:28;96109.97;;;6.89;73.22
20612;BME280;10465;42.686;23.364;2022-12-18T06:18:58;96111.53;;;6.90;72.48
20612;BME280;10465;42.686;23.364;2022-12-18T06:21:24;96095.56;;;6.70;72.72
20612;BME280;10465;42.686;23.364;2022-12-18T06:23:49;96098.19;;;6.70;72.74
20612;BME280;10465;42.686;23.364;2022-12-18T06:26:15;96114.81;;;6.76;72.57
20612;BME280;10465;42.686;23.364;2022-12-18T06:28:40;96110.66;;;6.80;72.63
20612;BME280;10465;42.686;23.364;2022-12-18T06:31:06;96115.53;;;6.66;73.18
20612;BME280;10465;42.686;23.364;2022-12-18T06:33:31;96126.59;;;6.68;73.20
20612;BME280;10465;42.686;23.364;2022-12-18T06:36:06;96130.53;;;6.65;73.02
20612;BME280;10465;42.686;23.364;2022-12-18T06:38:33;96127.94;;;6.71;73.51
20612;BME280;10465;42.686;23.364;2022-12-18T06:40:59;96140.06;;;6.72;72.78
20612;BME280;10465;42.686;23.364;2022-12-18T06:43:25;96141.59;;;6.67;73.05
20612;BME280;10465;42.686;23.364;2022-12-18T06:45:50;96128.66;;;6.61;72.89
20612;BME280;10465;42.686;23.364;2022-12-18T06:48:19;96148.03;;;6.77;72.87
20612;BME280;10465;42.686;23.364;2022-12-18T06:50:45;96133.78;;;6.51;72.78
20612;BME280;10465;42.686;23.364;2022-12-18T06:53:10;96146.63;;;6.69;72.66
20612;BME280;10465;42.686;23.364;2022-12-18T06:55:36;96153.44;;;6.65;72.84
20612;BME280;10465;42.686;23.364;2022-12-18T06:58:01;96148.25;;;6.75;72.56
20612;BME280;10465;42.686;23.364;2022-12-18T07:00:27;96149.00;;;6.71;72.42
20612;BME280;10465;42.686;23.364;2022-12-18T07:02:52;96126.69;;;6.51;71.43
20612;BME280;10465;42.686;23.364;2022-12-18T07:05:18;96158.25;;;6.73;70.98
20612;BME280;10465;42.686;23.364;2022-12-18T07:07:43;96137.28;;;6.56;70.12
20612;BME280;10465;42.686;23.364;2022-12-18T07:10:09;96141.53;;;6.62;69.48
20612;BME280;10465;42.686;23.364;2022-12-18T07:12:34;96170.44;;;6.84;68.72
20612;BME280;10465;42.686;23.364;2022-12-18T07:15:00;96174.81;;;6.74;69.23
20612;BME280;10465;42.686;23.364;2022-12-18T07:17:25;96151.09;;;6.68;68.75
20612;BME280;10465;42.686;23.364;2022-12-18T07:19:51;96151.75;;;6.59;69.82
20612;BME280;10465;42.686;23.364;2022-12-18T07:22:16;96160.53;;;6.64;69.82
20612;BME280;10465;42.686;23.364;2022-12-18T07:24:42;96168.84;;;6.56;70.32
20612;BME280;10465;42.686;23.364;2022-12-18T07:27:07;96156.03;;;6.38;70.75
20612;BME280;10465;42.686;23.364;2022-12-18T07:29:32;96175.72;;;6.57;70.67
20612;BME280;10465;42.686;23.364;2022-12-18T07:31:58;96168.25;;;6.49;71.19
20612;BME280;10465;42.686;23.364;2022-12-18T07:34:23;96184.69;;;6.61;71.19
20612;BME280;10465;42.686;23.364;2022-12-18T07:36:49;96185.19;;;6.58;70.75
20612;BME280;10465;42.686;23.364;2022-12-18T07:39:14;96184.38;;;6.58;71.09
20612;BME280;10465;42.686;23.364;2022-12-18T07:41:40;96151.28;;;6.40;70.84
20612;BME280;10465;42.686;23.364;2022-12-18T07:44:12;96195.22;;;6.61;70.88
20612;BME280;10465;42.686;23.364;2022-12-18T07:46:38;96196.53;;;6.64;70.93
20612;BME280;10465;42.686;23.364;2022-12-18T07:49:03;96180.97;;;6.57;71.07
20612;BME280;10465;42.686;23.364;2022-12-18T07:51:29;96117.63;;;6.15;71.13
20612;BME280;10465;42.686;23.364;2022-12-18T07:53:55;96194.16;;;6.62;71.51
20612;BME280;10465;42.686;23.364;2022-12-18T07:56:21;96204.97;;;6.61;71.55
20612;BME280;10465;42.686;23.364;2022-12-18T07:58:47;96200.78;;;6.65;71.64
20612;BME280;10465;42.686;23.364;2022-12-18T08:01:12;96187.19;;;6.51;71.70
20612;BME280;10465;42.686;23.364;2022-12-18T08:03:39;96207.69;;;6.71;71.48
20612;BME280;10465;42.686;23.364;2022-12-18T08:06:07;96219.78;;;6.72;71.78
20612;BME280;10465;42.686;23.364;2022-12-18T08:08:34;96218.03;;;6.56;72.64
20612;BME280;10465;42.686;23.364;2022-12-18T08:10:59;96231.84;;;6.68;78.35
20612;BME280;10465;42.686;23.364;2022-12-18T08:13:26;96225.63;;;7.01;78.38
20612;BME280;10465;42.686;23.364;2022-12-18T08:16:10;96224.09;;;7.05;73.05
20612;BME280;10465;42.686;23.364;2022-12-18T08:18:37;96228.34;;;6.84;72.35
20612;BME280;10465;42.686;23.364;2022-12-18T08:23:35;96219.75;;;6.67;71.81
20612;BME280;10465;42.686;23.364;2022-12-18T08:26:00;96172.84;;;6.37;72.01
20612;BME280;10465;42.686;23.364;2022-12-18T08:28:26;96239.47;;;6.64;71.93
20612;BME280;10465;42.686;23.364;2022-12-18T08:30:52;96246.31;;;6.65;71.91
20612;BME280;10465;42.686;23.364;2022-12-18T08:33:18;96248.31;;;6.58;71.63
20612;BME280;10465;42.686;23.364;2022-12-18T08:35:44;96254.44;;;6.64;71.63
20612;BME280;10465;42.686;23.364;2022-12-18T08:38:10;96253.63;;;6.63;72.00
20612;BME280;10465;42.686;23.364;2022-12-18T08:40:35;96239.28;;;6.49;71.19
20612;BME280;10465;42.686;23.364;2022-12-18T08:43:00;96251.69;;;6.54;70.97
20612;BME280;10465;42.686;23.364;2022-12-18T08:45:44;96264.97;;;6.64;71.24
20612;BME280;10465;42.686;23.364;2022-12-18T08:48:10;96259.00;;;6.68;71.02
20612;BME280;10465;42.686;23.364;2022-12-18T08:50:35;96265.03;;;6.69;70.97
20612;BME280;10465;42.686;23.364;2022-12-18T08:53:01;96259.47;;;6.65;70.10
20612;BME280;10465;42.686;23.364;2022-12-18T08:55:26;96258.13;;;6.63;70.13
20612;BME280;10465;42.686;23.364;2022-12-18T08:57:52;96261.31;;;6.65;70.25
20612;BME280;10465;42.686;23.364;2022-12-18T09:00:17;96271.84;;;6.65;69.66
20612;BME280;10465;42.686;23.364;2022-12-18T09:02:43;96256.63;;;6.72;69.27
20612;BME280;10465;42.686;23.364;2022-12-18T09:05:08;96244.22;;;6.67;69.17
20612;BME280;10465;42.686;23.364;2022-12-18T09:07:34;96264.59;;;6.77;68.68
20612;BME280;10465;42.686;23.364;2022-12-18T09:09:59;96267.81;;;6.84;67.99
20612;BME280;10465;42.686;23.364;2022-12-18T09:12:25;96263.66;;;6.88;68.02
20612;BME280;10465;42.686;23.364;2022-12-18T09:14:51;96244.72;;;6.64;67.41
20612;BME280;10465;42.686;23.364;2022-12-18T09:17:16;96266.19;;;6.78;67.88
20612;BME280;10465;42.686;23.364;2022-12-18T09:19:42;96263.13;;;6.86;67.76
20612;BME280;10465;42.686;23.364;2022-12-18T09:22:08;96258.66;;;6.87;66.67
20612;BME280;10465;42.686;23.364;2022-12-18T09:24:34;96263.13;;;6.86;66.38
20612;BME280;10465;42.686;23.364;2022-12-18T09:27:00;96267.47;;;6.76;66.12
20612;BME280;10465;42.686;23.364;2022-12-18T09:29:25;96240.19;;;6.60;66.45
20612;BME280;10465;42.686;23.364;2022-12-18T09:31:51;96274.34;;;6.77;66.65
20612;BME280;10465;42.686;23.364;2022-12-18T09:34:17;96252.69;;;6.69;65.93
20612;BME280;10465;42.686;23.364;2022-12-18T09:36:42;96263.25;;;6.75;66.19
20612;BME280;10465;42.686;23.364;2022-12-18T09:39:08;96263.97;;;6.92;66.04
20612;BME280;10465;42.686;23.364;2022-12-18T09:46:39;96259.78;;;6.96;64.81
20612;BME280;10465;42.686;23.364;2022-12-18T09:49:12;96257.94;;;6.69;65.25
20612;BME280;10465;42.686;23.364;2022-12-18T09:51:50;96265.56;;;6.71;66.34
20612;BME280;10465;42.686;23.364;2022-12-18T09:54:26;96243.19;;;6.68;65.83
20612;BME280;10465;42.686;23.364;2022-12-18T09:56:51;96268.69;;;6.90;65.37
20612;BME280;10465;42.686;23.364;2022-12-18T09:59:30;96254.97;;;6.88;65.29
20612;BME280;10465;42.686;23.364;2022-12-18T10:01:57;96263.47;;;6.95;65.18
20612;BME280;10465;42.686;23.364;2022-12-18T10:04:23;96238.38;;;6.87;65.02
20612;BME280;10465;42.686;23.364;2022-12-18T10:07:08;96230.69;;;6.81;64.05
20612;BME280;10465;42.686;23.364;2022-12-18T10:12:58;96264.19;;;7.12;64.03
20612;BME280;10465;42.686;23.364;2022-12-18T10:15:37;96263.72;;;7.21;64.34
20612;BME280;10465;42.686;23.364;2022-12-18T10:21:11;96265.84;;;7.18;63.55
20612;BME280;10465;42.686;23.364;2022-12-18T10:26:16;96270.00;;;7.14;63.40
20612;BME280;10465;42.686;23.364;2022-12-18T10:28:43;96258.47;;;7.21;63.31
20612;BME280;10465;42.686;23.364;2022-12-18T10:31:17;96246.03;;;7.16;63.04
20612;BME280;10465;42.686;23.364;2022-12-18T10:33:43;96263.66;;;7.37;62.68
20612;BME280;10465;42.686;23.364;2022-12-18T10:36:09;96238.22;;;7.21;62.77
20612;BME280;10465;42.686;23.364;2022-12-18T10:38:35;96269.72;;;7.38;62.47
20612;BME280;10465;42.686;23.364;2022-12-18T10:41:03;96262.56;;;7.33;61.91
20612;BME280;10465;42.686;23.364;2022-12-18T10:48:51;96248.97;;;7.19;63.25
20612;BME280;10465;42.686;23.364;2022-12-18T10:54:00;96259.69;;;7.13;64.46
20612;BME280;10465;42.686;23.364;2022-12-18T10:56:28;96233.03;;;7.04;64.69
20612;BME280;10465;42.686;23.364;2022-12-18T10:59:05;96259.28;;;7.21;64.36
20612;BME280;10465;42.686;23.364;2022-12-18T11:01:57;96242.63;;;7.15;64.23
20612;BME280;10465;42.686;23.364;2022-12-18T11:04:28;96256.25;;;7.34;63.61
20612;BME280;10465;42.686;23.364;2022-12-18T11:07:02;96255.22;;;7.40;63.41
20612;BME280;10465;42.686;23.364;2022-12-18T11:09:30;96260.78;;;7.44;64.17
20612;BME280;10465;42.686;23.364;2022-12-18T11:12:01;96265.81;;;7.46;64.36
20612;BME280;10465;42.686;23.364;2022-12-18T11:14:33;96257.63;;;7.42;63.83
20612;BME280;10465;42.686;23.364;2022-12-18T11:17:00;96253.03;;;7.32;63.43
20612;BME280;10465;42.686;23.364;2022-12-18T11:19:36;96250.94;;;7.29;62.81
20612;BME280;10465;42.686;23.364;2022-12-18T11:24:49;96250.66;;;7.31;63.00
20612;BME280;10465;42.686;23.364;2022-12-18T11:27:18;96263.34;;;7.34;62.64
20612;BME280;10465;42.686;23.364;2022-12-18T11:29:44;96251.91;;;7.23;63.64
20612;BME280;10465;42.686;23.364;2022-12-18T11:37:29;96219.94;;;7.09;63.03
20612;BME280;10465;42.686;23.364;2022-12-18T11:40:02;96242.47;;;7.27;63.54
20612;BME280;10465;42.686;23.364;2022-12-18T11:43:02;96272.28;;;7.33;63.55
20612;BME280;10465;42.686;23.364;2022-12-18T11:45:35;96232.50;;;7.02;63.65
20612;BME280;10465;42.686;23.364;2022-12-18T11:48:12;96259.06;;;7.28;63.55
20612;BME280;10465;42.686;23.364;2022-12-18T11:50:52;96264.97;;;7.40;63.69
20612;BME280;10465;42.686;23.364;2022-12-18T11:53:19;96269.47;;;7.44;63.01
20612;BME280;10465;42.686;23.364;2022-12-18T12:01:22;96260.78;;;7.44;61.76
20612;BME280;10465;42.686;23.364;2022-12-18T12:09:37;96266.56;;;7.41;62.50
20612;BME280;10465;42.686;23.364;2022-12-18T12:30:21;96270.88;;;7.52;62.35
20612;BME280;10465;42.686;23.364;2022-12-18T12:32:58;96282.16;;;7.48;62.06
20612;BME280;10465;42.686;23.364;2022-12-18T12:38:41;96271.00;;;7.35;62.47
20612;BME280;10465;42.686;23.364;2022-12-18T12:41:14;96276.00;;;7.37;62.19
20612;BME280;10465;42.686;23.364;2022-12-18T12:44:03;96276.41;;;7.24;62.51
20612;BME280;10465;42.686;23.364;2022-12-18T12:46:32;96246.31;;;7.14;62.63
20612;BME280;10465;42.686;23.364;2022-12-18T12:49:03;96228.00;;;7.03;62.62
20612;BME280;10465;42.686;23.364;2022-12-18T12:51:36;96273.94;;;7.39;62.50
20612;BME280;10465;42.686;23.364;2022-12-18T12:54:06;96267.81;;;7.33;62.63
20612;BME280;10465;42.686;23.364;2022-12-18T12:56:45;96263.25;;;7.24;62.78
20612;BME280;10465;42.686;23.364;2022-12-18T12:59:31;96285.59;;;7.48;63.02
20612;BME280;10465;42.686;23.364;2022-12-18T13:02:10;96288.53;;;7.52;62.77
20612;BME280;10465;42.686;23.364;2022-12-18T13:04:50;96292.56;;;7.59;63.08
20612;BME280;10465;42.686;23.364;2022-12-18T13:07:25;96296.53;;;7.62;62.68
20612;BME280;10465;42.686;23.364;2022-12-18T13:13:00;96270.38;;;7.28;62.52
20612;BME280;10465;42.686;23.364;2022-12-18T13:15:42;96308.56;;;7.26;63.25
20612;BME280;10465;42.686;23.364;2022-12-18T13:20:39;96312.50;;;7.23;62.48
20612;BME280;10465;42.686;23.364;2022-12-18T13:29:08;96316.13;;;7.44;62.32
20612;BME280;10465;42.686;23.364;2022-12-18T13:31:09;96290.13;;;7.26;62.46
20612;BME280;10465;42.686;23.364;2022-12-18T13:36:17;96263.81;;;7.04;62.60
20612;BME280;10465;42.686;23.364;2022-12-18T13:41:42;96276.81;;;7.10;62.29
20612;BME280;10465;42.686;23.364;2022-12-18T13:44:17;96321.59;;;7.37;62.58
20612;BME280;10465;42.686;23.364;2022-12-18T13:46:49;96329.50;;;7.37;62.71
20612;BME280;10465;42.686;23.364;2022-12-18T13:49:34;96325.06;;;7.43;63.10
20612;BME280;10465;42.686;23.364;2022-12-18T13:52:02;96339.97;;;7.32;63.44
20612;BME280;10465;42.686;23.364;2022-12-18T13:54:41;96330.78;;;7.35;62.78
20612;BME280;10465;42.686;23.364;2022-12-18T13:57:33;96340.84;;;7.38;62.53
20612;BME280;10465;42.686;23.364;2022-12-18T14:02:44;96343.03;;;7.24;62.96
20612;BME280;10465;42.686;23.364;2022-12-18T14:05:25;96351.25;;;7.28;62.88
20612;BME280;10465;42.686;23.364;2022-12-18T14:07:53;96350.22;;;7.29;62.95
20612;BME280;10465;42.686;23.364;2022-12-18T14:10:19;96354.19;;;7.31;63.31
20612;BME280;10465;42.686;23.364;2022-12-18T14:12:47;96343.34;;;7.28;63.12
20612;BME280;10465;42.686;23.364;2022-12-18T14:17:55;96331.91;;;7.17;62.97
20612;BME280;10465;42.686;23.364;2022-12-18T14:20:22;96351.06;;;7.34;62.75
20612;BME280;10465;42.686;23.364;2022-12-18T14:22:49;96360.75;;;7.29;62.66
20612;BME280;10465;42.686;23.364;2022-12-18T14:25:18;96370.31;;;7.35;62.45
20612;BME280;10465;42.686;23.364;2022-12-18T14:27:47;96356.81;;;7.31;61.87
20612;BME280;10465;42.686;23.364;2022-12-18T14:30:28;96345.16;;;7.22;61.49
20612;BME280;10465;42.686;23.364;2022-12-18T14:33:10;96363.19;;;7.35;61.63
20612;BME280;10465;42.686;23.364;2022-12-18T14:35:39;96367.94;;;7.33;61.45
20612;BME280;10465;42.686;23.364;2022-12-18T14:40:43;96361.25;;;7.26;61.64
20612;BME280;10465;42.686;23.364;2022-12-18T14:43:12;96361.00;;;7.27;61.93
20612;BME280;10465;42.686;23.364;2022-12-18T14:45:40;96359.16;;;7.28;61.23
20612;BME280;10465;42.686;23.364;2022-12-18T14:48:20;96363.91;;;7.26;60.54
20612;BME280;10465;42.686;23.364;2022-12-18T14:50:55;96356.91;;;7.14;60.66
20612;BME280;10465;42.686;23.364;2022-12-18T14:53:33;96365.84;;;7.13;60.13
20612;BME280;10465;42.686;23.364;2022-12-18T14:55:59;96299.56;;;6.73;59.86
20612;BME280;10465;42.686;23.364;2022-12-18T14:58:25;96349.00;;;6.92;59.59
20612;BME280;10465;42.686;23.364;2022-12-18T15:00:51;96355.38;;;6.97;59.52
20612;BME280;10465;42.686;23.364;2022-12-18T15:03:19;96367.25;;;6.99;59.93